createdAt,value
2018-08-23T03:01:03.927Z,0.00
2018-08-23T03:02:04.236Z,0.00
2018-08-23T03:03:04.848Z,0.00
2018-08-23T03:04:05.678Z,0.00
2018-08-23T03:05:04.471Z,0.00
2018-08-23T03:06:05.447Z,0.00
2018-08-23T03:07:06.891Z,0.00
2018-08-23T03:08:05.402Z,0.00
2018-08-23T03:09:07.259Z,0.00
2018-08-23T03:10:06.150Z,0.00
2018-08-23T03:11:04.958Z,0.00
2018-08-23T03:12:03.932Z,0.00
2018-08-23T03:13:04.014Z,0.00
2018-08-23T03:14:04.084Z,0.00
2018-08-23T03:15:04.444Z,0.00
2018-08-23T03:16:04.541Z,0.00
2018-08-23T03:17:04.680Z,0.00
2018-08-23T03:18:04.901Z,0.00
2018-08-23T03:19:04.928Z,0.00
2018-08-23T03:20:05.139Z,0.00
2018-08-23T03:21:05.469Z,0.00
2018-08-23T03:22:05.610Z,0.00
2018-08-23T03:23:05.818Z,0.00
2018-08-23T03:24:05.862Z,0.00
2018-08-23T03:25:06.278Z,0.00
2018-08-23T03:26:06.363Z,0.00
2018-08-23T03:27:06.641Z,0.00
2018-08-23T03:28:06.786Z,0.00
2018-08-23T03:29:06.929Z,0.00
2018-08-23T03:30:07.048Z,0.00
2018-08-23T03:31:07.307Z,0.00
2018-08-23T03:32:08.023Z,0.00
2018-08-23T03:33:07.472Z,0.00
2018-08-23T03:34:07.682Z,0.00
2018-08-23T03:35:07.876Z,0.00
2018-08-23T03:36:08.030Z,0.00
2018-08-23T03:37:08.304Z,0.00
2018-08-23T03:38:08.552Z,0.00
2018-08-23T03:39:08.658Z,0.00
2018-08-23T03:40:08.708Z,0.00
2018-08-23T03:41:09.092Z,0.00
2018-08-23T03:42:09.158Z,0.00
2018-08-23T03:43:09.449Z,0.00
2018-08-23T03:44:09.550Z,0.00
2018-08-23T03:45:09.794Z,0.00
2018-08-23T03:46:09.883Z,0.00
2018-08-23T03:47:10.018Z,0.00
2018-08-23T03:48:10.192Z,0.00
2018-08-23T03:49:10.505Z,0.00
2018-08-23T03:50:10.633Z,0.00
2018-08-23T03:51:10.870Z,0.00
2018-08-23T03:52:11.155Z,0.00
2018-08-23T03:53:11.258Z,0.00
2018-08-23T03:54:11.387Z,0.00
2018-08-23T03:55:11.743Z,0.00
2018-08-23T03:56:11.922Z,0.00
2018-08-23T03:57:11.919Z,0.00
2018-08-23T03:58:12.221Z,0.00
2018-08-23T03:59:12.282Z,0.00
2018-08-23T04:00:12.763Z,0.00
2018-08-23T04:01:13.045Z,0.00
2018-08-23T04:02:13.186Z,0.00
2018-08-23T04:03:13.300Z,0.00
2018-08-23T04:04:13.701Z,0.00
2018-08-23T04:05:13.687Z,0.00
2018-08-23T04:06:14.146Z,0.00
2018-08-23T04:07:14.012Z,0.00
2018-08-23T04:08:14.119Z,0.00
2018-08-23T04:09:14.333Z,0.00
2018-08-23T04:10:14.668Z,0.00
2018-08-23T04:11:14.917Z,0.00
2018-08-23T04:12:15.623Z,0.00
2018-08-23T04:13:15.089Z,5.63
2018-08-23T04:14:15.407Z,5.63
2018-08-23T04:15:15.619Z,5.63
2018-08-23T04:16:15.876Z,5.63
2018-08-23T04:17:16.007Z,5.63
2018-08-23T04:18:15.914Z,5.63
2018-08-23T04:19:16.128Z,5.63
2018-08-23T04:20:16.518Z,11.25
2018-08-23T04:21:16.824Z,11.25
2018-08-23T04:22:16.912Z,11.25
2018-08-23T04:23:16.961Z,11.25
2018-08-23T04:24:17.231Z,11.25
2018-08-23T04:25:17.377Z,16.88
2018-08-23T04:26:17.542Z,16.88
2018-08-23T04:27:17.844Z,16.88
2018-08-23T04:28:18.245Z,16.88
2018-08-23T04:29:18.277Z,22.50
2018-08-23T04:30:18.336Z,22.50
2018-08-23T04:31:18.686Z,22.50
2018-08-23T04:32:18.376Z,28.13
2018-08-23T04:33:18.491Z,28.13
2018-08-23T04:34:18.800Z,28.13
2018-08-23T04:35:19.112Z,28.13
2018-08-23T04:36:19.196Z,33.75
2018-08-23T04:37:19.615Z,33.75
2018-08-23T04:38:19.732Z,33.75
2018-08-23T04:39:19.753Z,39.38
2018-08-23T04:40:19.901Z,39.38
2018-08-23T04:41:20.025Z,39.38
2018-08-23T04:42:20.311Z,45.00
2018-08-23T04:43:20.488Z,45.00
2018-08-23T04:44:20.763Z,45.00
2018-08-23T04:45:20.808Z,50.63
2018-08-23T04:46:20.956Z,50.63
2018-08-23T04:47:21.321Z,50.63
2018-08-23T04:48:21.328Z,56.25
2018-08-23T04:49:21.576Z,56.25
2018-08-23T04:50:21.739Z,61.88
2018-08-23T04:51:22.036Z,61.88
2018-08-23T04:52:22.002Z,61.88
2018-08-23T04:53:22.426Z,67.50
2018-08-23T04:54:22.826Z,67.50
2018-08-23T04:55:22.879Z,67.50
2018-08-23T04:56:22.969Z,73.13
2018-08-23T04:57:23.273Z,73.13
2018-08-23T04:58:23.341Z,73.13
2018-08-23T04:59:23.536Z,78.75
2018-08-23T05:00:23.663Z,78.75
2018-08-23T05:01:23.956Z,84.38
2018-08-23T05:02:23.952Z,84.38
2018-08-23T05:03:24.354Z,84.38
2018-08-23T05:04:24.304Z,90.00
2018-08-23T05:05:24.569Z,90.00
2018-08-23T05:06:24.593Z,90.00
2018-08-23T05:07:25.087Z,95.63
2018-08-23T05:08:25.314Z,95.63
2018-08-23T05:09:25.257Z,95.63
2018-08-23T05:10:25.390Z,101.25
2018-08-23T05:11:25.609Z,101.25
2018-08-23T05:12:25.721Z,101.25
2018-08-23T05:13:25.903Z,106.88
2018-08-23T05:14:26.537Z,106.88
2018-08-23T05:15:26.363Z,106.88
2018-08-23T05:16:26.585Z,112.50
2018-08-23T05:17:26.633Z,112.50
2018-08-23T05:18:26.780Z,112.50
2018-08-23T05:19:27.019Z,118.13
2018-08-23T05:20:27.202Z,118.13
2018-08-23T05:21:27.252Z,118.13
2018-08-23T05:22:28.058Z,118.13
2018-08-23T05:23:27.854Z,123.75
2018-08-23T05:24:28.003Z,123.75
2018-08-23T05:25:28.066Z,123.75
2018-08-23T05:26:28.192Z,129.38
2018-08-23T05:27:28.502Z,129.38
2018-08-23T05:28:28.724Z,129.38
2018-08-23T05:29:28.807Z,135.00
2018-08-23T05:30:29.135Z,135.00
2018-08-23T05:31:29.269Z,135.00
2018-08-23T05:32:29.406Z,135.00
2018-08-23T05:33:29.557Z,140.63
2018-08-23T05:34:30.079Z,140.63
2018-08-23T05:35:30.136Z,140.63
2018-08-23T05:36:30.200Z,140.63
2018-08-23T05:37:30.456Z,146.25
2018-08-23T05:38:30.677Z,146.25
2018-08-23T05:39:30.635Z,146.25
2018-08-23T05:40:30.997Z,151.88
2018-08-23T05:41:31.295Z,151.88
2018-08-23T05:42:31.240Z,157.50
2018-08-23T05:43:31.483Z,157.50
2018-08-23T05:44:31.654Z,163.13
2018-08-23T05:45:31.787Z,163.13
2018-08-23T05:46:31.900Z,163.13
2018-08-23T05:47:32.269Z,168.75
2018-08-23T05:48:32.359Z,168.75
2018-08-23T05:49:32.651Z,174.38
2018-08-23T05:50:32.647Z,180.00
2018-08-23T05:51:32.864Z,185.63
2018-08-23T05:52:33.182Z,185.63
2018-08-23T05:53:33.089Z,191.25
2018-08-23T05:54:33.274Z,196.88
2018-08-23T05:55:33.676Z,202.50
2018-08-23T05:56:33.722Z,208.13
2018-08-23T05:57:33.995Z,208.13
2018-08-23T05:58:34.233Z,213.75
2018-08-23T05:59:34.502Z,219.38
2018-08-23T06:00:34.553Z,219.38
2018-08-23T06:01:34.777Z,219.38
2018-08-23T06:02:35.069Z,219.38
2018-08-23T06:03:35.055Z,225.00
2018-08-23T06:04:35.313Z,225.00
2018-08-23T06:05:35.451Z,225.00
2018-08-23T06:06:35.727Z,230.63
2018-08-23T06:07:35.724Z,230.63
2018-08-23T06:08:35.910Z,236.25
2018-08-23T06:09:36.202Z,236.25
2018-08-23T06:10:36.295Z,236.25
2018-08-23T06:11:36.690Z,241.88
2018-08-23T06:12:36.837Z,241.88
2018-08-23T06:13:37.154Z,247.50
2018-08-23T06:14:37.215Z,247.50
2018-08-23T06:15:37.259Z,247.50
2018-08-23T06:16:37.497Z,253.13
2018-08-23T06:17:37.734Z,253.13
2018-08-23T06:18:37.908Z,253.13
2018-08-23T06:19:38.059Z,258.75
2018-08-23T06:20:38.241Z,258.75
2018-08-23T06:21:38.265Z,258.75
2018-08-23T06:22:38.548Z,258.75
2018-08-23T06:23:38.527Z,264.38
2018-08-23T06:24:38.965Z,270.00
2018-08-23T06:25:39.189Z,270.00
2018-08-23T06:26:39.278Z,270.00
2018-08-23T06:27:39.420Z,270.00
2018-08-23T06:28:39.553Z,270.00
2018-08-23T06:29:39.959Z,270.00
2018-08-23T06:30:40.032Z,275.63
2018-08-23T06:31:40.225Z,275.63
2018-08-23T06:32:40.320Z,275.63
2018-08-23T06:33:40.487Z,281.25
2018-08-23T06:34:40.712Z,281.25
2018-08-23T06:35:41.082Z,286.88
2018-08-23T06:36:41.017Z,286.88
2018-08-23T06:37:41.127Z,292.50
2018-08-23T06:38:41.434Z,292.50
2018-08-23T06:39:41.839Z,292.50
2018-08-23T06:40:41.848Z,298.13
2018-08-23T06:41:41.948Z,298.13
2018-08-23T06:42:41.944Z,298.13
2018-08-23T06:43:42.401Z,303.75
2018-08-23T06:44:42.505Z,303.75
2018-08-23T06:45:42.787Z,303.75
2018-08-23T06:46:42.903Z,309.38
2018-08-23T06:47:43.062Z,309.38
2018-08-23T06:48:43.120Z,315.00
2018-08-23T06:49:43.936Z,315.00
2018-08-23T06:50:43.487Z,315.00
2018-08-23T06:51:43.524Z,320.63
2018-08-23T06:52:43.697Z,326.25
2018-08-23T06:53:44.102Z,320.63
2018-08-23T06:54:44.267Z,326.25
2018-08-23T06:55:44.779Z,326.25
2018-08-23T06:56:44.738Z,326.25
2018-08-23T06:57:44.598Z,326.25
2018-08-23T06:58:44.865Z,337.50
2018-08-23T07:00:45.193Z,331.88
2018-08-23T07:01:45.457Z,337.50
2018-08-23T07:02:45.649Z,337.50
2018-08-23T07:03:45.789Z,343.13
2018-08-23T07:04:45.706Z,343.13
2018-08-23T07:05:47.367Z,343.13
2018-08-23T07:06:46.416Z,348.75
2018-08-23T07:07:46.369Z,348.75
2018-08-23T07:08:46.588Z,348.75
2018-08-23T07:09:46.981Z,354.38
2018-08-23T07:10:46.850Z,354.38
2018-08-23T07:11:47.343Z,360.00
2018-08-23T07:12:47.801Z,360.00
2018-08-23T07:13:47.540Z,360.00
2018-08-23T07:14:47.663Z,365.63
2018-08-23T07:15:47.681Z,371.25
2018-08-23T07:16:48.112Z,365.63
2018-08-23T07:17:48.327Z,376.88
2018-08-23T07:18:48.350Z,371.25
2018-08-23T07:19:48.721Z,376.88
2018-08-23T07:20:48.860Z,376.88
2018-08-23T07:21:49.148Z,376.88
2018-08-23T07:22:49.198Z,382.50
2018-08-23T07:23:49.389Z,382.50
2018-08-23T07:24:49.619Z,382.50
2018-08-23T07:25:49.665Z,388.13
2018-08-23T07:26:50.028Z,388.13
2018-08-23T07:27:50.132Z,393.75
2018-08-23T07:28:50.431Z,393.75
2018-08-23T07:29:50.487Z,393.75
2018-08-23T07:30:50.508Z,399.38
2018-08-23T07:31:50.704Z,399.38
2018-08-23T07:32:51.136Z,399.38
2018-08-23T07:33:52.985Z,405.00
2018-08-23T07:34:52.716Z,405.00
2018-08-23T07:35:51.530Z,405.00
2018-08-23T07:36:51.608Z,410.63
2018-08-23T07:37:51.628Z,410.63
2018-08-23T07:38:52.477Z,416.25
2018-08-23T07:39:52.816Z,416.25
2018-08-23T07:40:53.553Z,416.25
2018-08-23T07:41:53.008Z,416.25
2018-08-23T07:42:52.810Z,421.88
2018-08-23T07:43:53.156Z,438.75
2018-08-23T07:44:53.405Z,433.13
2018-08-23T07:46:53.340Z,433.13
2018-08-23T07:48:54.487Z,438.75
2018-08-23T07:52:41.902Z,444.38
2018-08-23T07:53:49.617Z,455.63
2018-08-23T07:57:26.370Z,483.75
2018-08-23T07:58:21.588Z,506.25
2018-08-23T08:00:43.591Z,517.50
2018-08-23T08:15:42.446Z,742.50
2018-08-23T08:17:46.798Z,770.63
2018-08-23T08:18:53.887Z,770.63
2018-08-23T08:20:23.090Z,781.88
2018-08-23T08:22:29.515Z,821.25
2018-08-23T08:22:52.475Z,838.13
2018-08-23T08:24:45.111Z,888.75
2018-08-23T08:25:40.012Z,900.00
2018-08-23T08:26:36.975Z,922.50
2018-08-23T08:27:37.827Z,945.00
2018-08-23T08:28:37.157Z,973.13
2018-08-23T08:29:37.448Z,1001.25
2018-08-23T08:30:37.412Z,1029.38
2018-08-23T08:31:37.883Z,1046.25
2018-08-23T08:32:38.156Z,1074.38
2018-08-23T08:33:38.059Z,1096.88
2018-08-23T08:34:39.040Z,1119.38
2018-08-23T08:35:38.897Z,1130.63
2018-08-23T08:36:38.459Z,1170.00
2018-08-23T08:37:38.770Z,1181.25
2018-08-23T08:38:38.779Z,1198.13
2018-08-23T08:39:40.006Z,1220.63
2018-08-23T08:40:39.188Z,1243.13
2018-08-23T08:41:39.312Z,1260.00
2018-08-23T08:42:39.627Z,1276.88
2018-08-23T08:43:39.741Z,1299.38
2018-08-23T08:44:40.027Z,1316.25
2018-08-23T08:45:40.234Z,1361.25
2018-08-23T08:46:40.304Z,1355.63
2018-08-23T08:47:40.558Z,1378.13
2018-08-23T08:48:40.803Z,1406.25
2018-08-23T08:49:40.910Z,1428.75
2018-08-23T08:50:41.117Z,1462.50
2018-08-23T08:51:41.330Z,1485.00
2018-08-23T08:52:41.384Z,1518.75
2018-08-23T08:53:41.571Z,1530.00
2018-08-23T08:54:41.870Z,1563.75
2018-08-23T08:55:41.892Z,1591.88
2018-08-23T08:56:42.165Z,1614.38
2018-08-23T08:57:42.444Z,1636.88
2018-08-23T08:58:42.344Z,1642.50
2018-08-23T08:59:42.616Z,1659.38
2018-08-23T09:00:42.926Z,1676.25
2018-08-23T09:01:43.055Z,1710.00
2018-08-23T09:02:43.154Z,1715.63
2018-08-23T09:03:43.572Z,1726.88
2018-08-23T09:04:43.536Z,1749.38
2018-08-23T09:05:44.644Z,1755.00
2018-08-23T09:06:44.045Z,1760.63
2018-08-23T09:07:44.256Z,1760.63
2018-08-23T09:08:44.296Z,1771.88
2018-08-23T09:09:44.418Z,1777.50
2018-08-23T09:10:44.785Z,1800.00
2018-08-23T09:11:44.891Z,1811.25
2018-08-23T09:13:45.403Z,1867.50
2018-08-23T09:14:45.550Z,1884.38
2018-08-23T09:15:45.534Z,1918.13
2018-08-23T09:16:45.896Z,1974.38
2018-08-23T09:17:46.150Z,2008.13
2018-08-23T09:18:46.183Z,2047.50
2018-08-23T09:19:46.376Z,2086.88
2018-08-23T09:20:46.709Z,2109.38
2018-08-23T09:21:46.688Z,2126.25
2018-08-23T09:22:46.846Z,2143.13
2018-08-23T09:23:47.014Z,2165.63
2018-08-23T09:24:47.292Z,2188.13
2018-08-23T09:25:47.283Z,2199.38
2018-08-23T09:26:47.585Z,2210.63
2018-08-23T09:27:47.763Z,1833.75
2018-08-23T09:28:48.020Z,1288.13
2018-08-23T09:29:48.279Z,810.00
2018-08-23T09:30:48.439Z,652.50
2018-08-23T09:31:48.414Z,658.13
2018-08-23T09:32:48.678Z,1035.00
2018-08-23T09:33:48.872Z,1816.88
2018-08-23T09:34:49.140Z,2368.13
2018-08-23T09:35:49.161Z,2053.13
2018-08-23T09:36:49.383Z,2469.38
2018-08-23T09:37:49.870Z,2486.25
2018-08-23T09:38:49.889Z,2503.13
2018-08-23T09:39:50.169Z,2531.25
2018-08-23T09:40:50.351Z,2553.75
2018-08-23T09:41:50.579Z,2570.63
2018-08-23T09:42:50.731Z,2598.75
2018-08-23T09:43:51.493Z,2610.00
2018-08-23T09:44:50.875Z,2621.25
2018-08-23T09:45:51.130Z,2638.13
2018-08-23T09:46:51.395Z,2660.63
2018-08-23T09:47:51.489Z,2655.00
2018-08-23T09:48:51.714Z,2615.63
2018-08-23T09:49:52.035Z,2677.50
2018-08-23T09:50:52.288Z,2705.63
2018-08-23T09:51:52.298Z,2773.13
2018-08-23T09:52:52.350Z,2790.00
2018-08-23T09:53:52.640Z,2790.00
2018-08-23T09:54:52.914Z,2795.63
2018-08-23T09:55:53.085Z,2812.50
2018-08-23T09:56:53.232Z,2576.25
2018-08-23T09:57:53.358Z,2587.50
2018-08-23T09:58:53.534Z,2632.50
2018-08-23T09:59:53.843Z,2536.88
2018-08-23T10:00:54.174Z,2548.13
2018-08-23T10:01:54.098Z,2581.88
2018-08-23T10:02:54.666Z,2677.50
2018-08-23T10:03:54.330Z,2745.00
2018-08-23T10:04:54.689Z,2103.75
2018-08-23T10:05:54.969Z,2131.88
2018-08-23T10:07:55.247Z,2536.88
2018-08-23T10:08:55.492Z,2750.63
2018-08-23T10:09:55.568Z,2919.38
2018-08-23T10:10:55.903Z,3172.50
2018-08-23T10:11:55.930Z,3166.88
2018-08-23T10:12:56.108Z,3217.50
2018-08-23T10:13:56.299Z,3223.13
2018-08-23T10:14:56.440Z,3223.13
2018-08-23T10:15:56.766Z,3341.25
2018-08-23T10:16:56.891Z,3318.75
2018-08-23T10:17:57.128Z,3262.50
2018-08-23T10:18:57.233Z,3256.88
2018-08-23T10:19:57.506Z,3279.38
2018-08-23T10:20:57.579Z,3285.00
2018-08-23T10:21:58.094Z,3273.75
2018-08-23T10:22:58.070Z,3285.00
2018-08-23T10:23:58.374Z,3369.38
2018-08-23T10:24:58.501Z,3453.75
2018-08-23T10:25:58.641Z,3498.75
2018-08-23T10:26:59.044Z,3549.38
2018-08-23T10:27:59.141Z,3611.25
2018-08-23T10:28:59.275Z,3003.75
2018-08-23T10:29:59.812Z,3189.38
2018-08-23T10:30:59.558Z,3301.88
2018-08-23T10:31:59.830Z,3285.00
2018-08-23T10:32:59.964Z,2525.63
2018-08-23T10:33:59.932Z,3515.63
2018-08-23T10:35:00.215Z,3105.00
2018-08-23T10:36:00.701Z,3661.88
2018-08-23T10:37:00.634Z,2593.13
2018-08-23T10:38:00.930Z,3324.38
2018-08-23T10:39:00.972Z,3791.25
2018-08-23T10:40:01.158Z,2975.63
2018-08-23T10:41:01.308Z,3431.25
2018-08-23T10:42:01.573Z,3003.75
2018-08-23T10:43:01.878Z,2773.13
2018-08-23T10:44:01.845Z,1861.88
2018-08-23T10:45:02.031Z,1861.88
2018-08-23T10:46:02.249Z,1693.13
2018-08-23T10:47:02.570Z,3780.00
2018-08-23T10:48:02.581Z,3999.38
2018-08-23T10:49:02.763Z,3971.25
2018-08-23T10:50:02.982Z,3909.38
2018-08-23T10:51:03.157Z,3858.75
2018-08-23T10:52:03.297Z,3825.00
2018-08-23T10:53:03.464Z,3841.88
2018-08-23T10:54:03.713Z,3853.13
2018-08-23T10:55:04.001Z,3909.38
2018-08-23T10:56:04.201Z,3943.13
2018-08-23T10:57:04.306Z,3954.38
2018-08-23T10:58:04.666Z,4044.38
2018-08-23T10:59:04.851Z,4055.63
2018-08-23T11:00:04.966Z,3780.00
2018-08-23T11:01:04.999Z,4044.38
2018-08-23T11:02:05.280Z,3943.13
2018-08-23T11:03:05.366Z,4201.88
2018-08-23T11:04:05.633Z,3791.25
2018-08-23T11:05:06.001Z,4061.25
2018-08-23T11:06:06.068Z,4083.75
2018-08-23T11:07:06.112Z,4027.50
2018-08-23T11:08:06.502Z,3886.88
2018-08-23T11:09:06.698Z,3931.88
2018-08-23T11:10:07.061Z,3802.50
2018-08-23T11:11:07.057Z,3836.25
2018-08-23T11:12:07.510Z,3796.88
2018-08-23T11:13:07.618Z,3830.63
2018-08-23T11:14:07.914Z,3836.25
2018-08-23T11:15:07.778Z,3780.00
2018-08-23T11:16:07.982Z,3796.88
2018-08-23T11:17:08.133Z,3870.00
2018-08-23T11:18:08.261Z,3931.88
2018-08-23T11:19:08.440Z,3971.25
2018-08-23T11:20:08.684Z,4050.00
2018-08-23T11:21:08.936Z,4123.13
2018-08-23T11:22:08.920Z,4173.75
2018-08-23T11:23:09.460Z,4190.63
2018-08-23T11:24:09.372Z,4185.00
2018-08-23T11:25:09.444Z,4123.13
2018-08-23T11:26:09.675Z,4095.00
2018-08-23T11:27:09.907Z,4286.25
2018-08-23T11:28:10.178Z,4404.38
2018-08-23T11:29:10.405Z,4404.38
2018-08-23T11:30:10.627Z,3954.38
2018-08-23T11:31:10.832Z,4381.88
2018-08-23T11:32:11.118Z,2711.25
2018-08-23T11:33:11.046Z,1591.88
2018-08-23T11:34:11.367Z,1839.38
2018-08-23T11:35:11.586Z,1755.00
2018-08-23T11:36:11.757Z,1957.50
2018-08-23T11:37:11.903Z,2559.38
2018-08-23T11:38:12.137Z,2761.88
2018-08-23T11:39:12.421Z,4033.13
2018-08-23T11:40:12.507Z,4190.63
2018-08-23T11:41:12.920Z,3549.38
2018-08-23T11:42:12.817Z,2643.75
2018-08-23T11:43:12.914Z,2925.00
2018-08-23T11:44:13.180Z,2958.75
2018-08-23T11:45:13.329Z,4359.38
2018-08-23T11:46:13.380Z,4280.63
2018-08-23T11:47:13.655Z,4308.75
2018-08-23T11:48:13.943Z,4331.25
2018-08-23T11:49:14.150Z,4050.00
2018-08-23T11:50:14.323Z,4185.00
2018-08-23T11:51:14.400Z,4297.50
2018-08-23T11:52:14.767Z,4297.50
2018-08-23T11:53:14.903Z,4246.88
2018-08-23T11:54:14.973Z,4269.38
2018-08-23T11:55:15.298Z,4230.00
2018-08-23T11:56:15.464Z,4173.75
2018-08-23T11:57:15.627Z,4190.63
2018-08-23T11:58:15.781Z,3037.50
2018-08-23T11:59:16.212Z,2216.25
2018-08-23T12:00:16.352Z,4140.00
2018-08-23T12:01:16.416Z,4066.88
2018-08-23T12:02:16.632Z,4100.63
2018-08-23T12:03:17.035Z,4286.25
2018-08-23T12:04:17.190Z,4207.50
2018-08-23T12:05:17.378Z,3976.88
2018-08-23T12:06:17.460Z,4140.00
2018-08-23T12:07:17.775Z,4128.75
2018-08-23T12:08:17.915Z,4061.25
2018-08-23T12:09:18.114Z,4055.63
2018-08-23T12:10:18.322Z,4078.13
2018-08-23T12:11:18.440Z,4027.50
2018-08-23T12:12:18.496Z,4078.13
2018-08-23T12:13:18.852Z,4145.63
2018-08-23T12:14:18.922Z,4218.75
2018-08-23T12:15:19.132Z,4320.00
2018-08-23T12:16:19.438Z,4320.00
2018-08-23T12:17:19.706Z,4280.63
2018-08-23T12:18:19.668Z,2491.88
2018-08-23T12:19:19.872Z,1833.75
2018-08-23T12:20:20.091Z,4145.63
2018-08-23T12:21:20.252Z,4606.88
2018-08-23T12:22:20.547Z,4561.88
2018-08-23T12:23:20.673Z,4618.13
2018-08-23T12:24:20.864Z,4713.75
2018-08-23T12:25:20.999Z,4719.38
2018-08-23T12:26:21.139Z,4646.25
2018-08-23T12:27:21.403Z,4635.00
2018-08-23T12:28:21.643Z,4578.75
2018-08-23T12:29:21.733Z,4567.50
2018-08-23T12:30:21.969Z,1299.38
2018-08-23T12:31:22.086Z,1372.50
2018-08-23T12:32:22.262Z,2120.63
2018-08-23T12:33:22.469Z,4483.13
2018-08-23T12:34:22.693Z,4618.13
2018-08-23T12:35:22.808Z,4691.25
2018-08-23T12:36:23.085Z,4775.63
2018-08-23T12:37:23.268Z,4792.50
2018-08-23T12:38:23.453Z,4303.13
2018-08-23T12:39:23.728Z,1586.25
2018-08-23T12:40:23.910Z,3785.63
2018-08-23T12:41:24.100Z,2925.00
2018-08-23T12:42:24.153Z,2210.63
2018-08-23T12:43:24.299Z,1710.00
2018-08-23T12:44:24.598Z,1434.38
2018-08-23T12:45:24.863Z,1361.25
2018-08-23T12:46:25.029Z,2469.38
2018-08-23T12:47:25.118Z,3228.75
2018-08-23T12:48:25.270Z,2418.75
2018-08-23T12:49:25.812Z,1586.25
2018-08-23T12:50:25.781Z,1575.00
2018-08-23T12:51:25.968Z,3144.38
2018-08-23T12:52:26.103Z,2908.13
2018-08-23T12:53:26.294Z,3375.00
2018-08-23T12:54:26.471Z,4168.13
2018-08-23T12:55:26.735Z,4455.00
2018-08-23T12:56:26.964Z,4539.38
2018-08-23T12:57:27.064Z,4646.25
2018-08-23T12:58:27.235Z,4590.00
2018-08-23T12:59:27.465Z,4561.88
2018-08-23T13:00:27.681Z,4381.88
2018-08-23T13:01:28.007Z,4370.63
2018-08-23T13:02:28.261Z,4477.50
2018-08-23T13:03:28.335Z,3566.25
2018-08-23T13:04:28.504Z,4505.63
2018-08-23T13:05:28.817Z,4449.38
2018-08-23T13:06:29.027Z,4522.50
2018-08-23T13:07:29.097Z,4359.38
2018-08-23T13:08:29.318Z,3926.25
2018-08-23T13:09:29.401Z,4106.25
2018-08-23T13:10:29.638Z,1760.63
2018-08-23T13:11:29.793Z,2486.25
2018-08-23T13:12:30.139Z,1648.13
2018-08-23T13:13:30.230Z,3116.25
2018-08-23T13:14:30.301Z,3971.25
2018-08-23T13:15:30.624Z,1822.50
2018-08-23T13:16:30.784Z,1710.00
2018-08-23T13:17:31.023Z,3206.25
2018-08-23T13:18:31.172Z,3639.38
2018-08-23T13:19:31.308Z,1659.38
2018-08-23T13:20:31.468Z,4865.63
2018-08-23T13:21:31.741Z,4837.50
2018-08-23T13:22:31.838Z,3915.00
2018-08-23T13:23:32.039Z,3836.25
2018-08-23T13:24:32.425Z,3178.13
2018-08-23T13:25:32.463Z,1575.00
2018-08-23T13:26:32.671Z,1563.75
2018-08-23T13:27:32.890Z,4590.00
2018-08-23T13:28:33.069Z,4696.88
2018-08-23T13:29:33.323Z,4606.88
2018-08-23T13:30:33.491Z,4545.00
2018-08-23T13:31:33.680Z,4398.75
2018-08-23T13:32:33.718Z,4314.38
2018-08-23T13:33:33.928Z,4123.13
2018-08-23T13:34:34.199Z,4123.13
2018-08-23T13:35:34.485Z,4308.75
2018-08-23T13:36:34.524Z,4297.50
2018-08-23T13:37:34.657Z,4235.63
2018-08-23T13:38:35.304Z,4353.75
2018-08-23T13:39:35.035Z,4320.00
2018-08-23T13:40:35.192Z,4066.88
2018-08-23T13:41:35.359Z,3341.25
2018-08-23T13:42:35.528Z,3645.00
2018-08-23T13:43:35.875Z,2570.63
2018-08-23T13:44:35.879Z,2671.88
2018-08-23T13:45:36.114Z,3290.63
2018-08-23T13:46:36.271Z,3841.88
2018-08-23T13:47:36.463Z,3971.25
2018-08-23T13:48:36.717Z,3892.50
2018-08-23T13:49:36.805Z,3723.75
2018-08-23T13:50:37.035Z,3673.13
2018-08-23T13:51:37.206Z,3830.63
2018-08-23T13:52:37.512Z,3971.25
2018-08-23T13:53:37.659Z,1006.88
2018-08-23T13:54:37.907Z,1113.75
2018-08-23T13:55:38.000Z,849.38
2018-08-23T13:56:38.282Z,793.13
2018-08-23T13:57:38.494Z,860.63
2018-08-23T13:58:38.674Z,2401.88
2018-08-23T13:59:38.837Z,3684.38
2018-08-23T14:00:39.068Z,4055.63
2018-08-23T14:01:39.247Z,4033.13
2018-08-23T14:02:39.467Z,4055.63
2018-08-23T14:03:39.571Z,4072.50
2018-08-23T14:04:39.875Z,3898.13
2018-08-23T14:05:40.109Z,3245.63
2018-08-23T14:06:40.172Z,3881.25
2018-08-23T14:07:40.325Z,3926.25
2018-08-23T14:08:40.518Z,1901.25
2018-08-23T14:09:40.724Z,3251.25
2018-08-23T14:10:40.919Z,3813.75
2018-08-23T14:11:41.109Z,1006.88
2018-08-23T14:12:41.295Z,984.38
2018-08-23T14:13:41.460Z,3633.75
2018-08-23T14:14:41.674Z,3881.25
2018-08-23T14:15:41.786Z,4021.88
2018-08-23T14:16:42.024Z,4044.38
2018-08-23T14:17:42.177Z,3960.00
2018-08-23T14:18:42.519Z,3864.38
2018-08-23T14:19:42.700Z,3847.50
2018-08-23T14:20:42.839Z,3960.00
2018-08-23T14:21:42.971Z,3948.75
2018-08-23T14:22:43.194Z,3920.63
2018-08-23T14:23:43.324Z,3751.88
2018-08-23T14:24:43.539Z,3695.63
2018-08-23T14:25:43.808Z,3718.13
2018-08-23T14:26:43.975Z,3729.38
2018-08-23T14:27:44.169Z,3751.88
2018-08-23T14:28:44.242Z,3515.63
2018-08-23T14:29:44.475Z,950.63
2018-08-23T14:30:44.832Z,3301.88
2018-08-23T14:31:44.897Z,3661.88
2018-08-23T14:32:45.066Z,3723.75
2018-08-23T14:33:45.232Z,3802.50
2018-08-23T14:34:45.513Z,3684.38
2018-08-23T14:35:45.647Z,3740.63
2018-08-23T14:36:45.797Z,3712.50
2018-08-23T14:37:45.977Z,3723.75
2018-08-23T14:38:46.152Z,3757.50
2018-08-23T14:39:46.391Z,3712.50
2018-08-23T14:40:46.582Z,3549.38
2018-08-23T14:41:46.847Z,3498.75
2018-08-23T14:42:47.226Z,3594.38
2018-08-23T14:43:47.101Z,3470.63
2018-08-23T14:44:47.314Z,3476.25
2018-08-23T14:45:47.536Z,3549.38
2018-08-23T14:46:47.744Z,3481.88
2018-08-23T14:47:47.848Z,3510.00
2018-08-23T14:48:48.149Z,3594.38
2018-08-23T14:49:48.314Z,3566.25
2018-08-23T14:50:48.413Z,3600.00
2018-08-23T14:51:48.780Z,3656.25
2018-08-23T14:52:48.865Z,3611.25
2018-08-23T14:53:49.086Z,3633.75
2018-08-23T14:54:49.258Z,3656.25
2018-08-23T14:55:49.404Z,3583.13
2018-08-23T14:56:49.571Z,3476.25
2018-08-23T14:57:49.823Z,3273.75
2018-08-23T14:58:50.029Z,3285.00
2018-08-23T14:59:50.275Z,3228.75
2018-08-23T15:00:50.384Z,3228.75
2018-08-23T15:01:50.633Z,3335.63
2018-08-23T15:02:50.780Z,3358.13
2018-08-23T15:03:50.857Z,3532.50
2018-08-23T15:04:51.064Z,3481.88
2018-08-23T15:05:51.361Z,3363.75
2018-08-23T15:06:51.454Z,3431.25
2018-08-23T15:07:51.777Z,3476.25
2018-08-23T15:08:51.879Z,3476.25
2018-08-23T15:09:52.194Z,3442.50
2018-08-23T15:10:52.322Z,3313.13
2018-08-23T15:11:52.473Z,3403.13
2018-08-23T15:12:52.693Z,3431.25
2018-08-23T15:13:52.838Z,3363.75
2018-08-23T15:14:53.069Z,3268.13
2018-08-23T15:15:53.125Z,3240.00
2018-08-23T15:16:53.432Z,3200.63
2018-08-23T15:17:54.313Z,3161.25
2018-08-23T15:18:53.740Z,3110.63
2018-08-23T15:19:54.032Z,3020.63
2018-08-23T15:20:54.232Z,3020.63
2018-08-23T15:21:54.922Z,2953.13
2018-08-23T15:22:56.303Z,2919.38
2018-08-23T15:23:54.661Z,2868.75
2018-08-23T15:24:54.871Z,2857.50
2018-08-23T15:25:55.136Z,2806.88
2018-08-23T15:26:55.512Z,2829.38
2018-08-23T15:27:55.495Z,2874.38
2018-08-23T15:28:55.669Z,2795.63
2018-08-23T15:29:55.975Z,2739.38
2018-08-23T15:30:55.987Z,2761.88
2018-08-23T15:31:56.379Z,2733.75
2018-08-23T15:32:56.592Z,2739.38
2018-08-23T15:33:56.661Z,2784.38
2018-08-23T15:34:56.913Z,2756.25
2018-08-23T15:35:57.003Z,2739.38
2018-08-23T15:36:57.355Z,2829.38
2018-08-23T15:37:57.419Z,2891.25
2018-08-23T15:38:59.608Z,2941.88
2018-08-23T15:39:57.784Z,3020.63
2018-08-23T15:40:58.054Z,3088.13
2018-08-23T15:41:58.270Z,3116.25
2018-08-23T15:42:58.448Z,3116.25
2018-08-23T15:43:58.626Z,3082.50
2018-08-23T15:44:58.842Z,3015.00
2018-08-23T15:45:59.043Z,2919.38
2018-08-23T15:46:59.276Z,2874.38
2018-08-23T15:47:59.431Z,2823.75
2018-08-23T15:48:59.591Z,2818.13
2018-08-23T15:49:59.885Z,2806.88
2018-08-23T15:51:00.001Z,2778.75
2018-08-23T15:52:00.181Z,2750.63
2018-08-23T15:53:00.475Z,2728.13